DW7110 Weather Reports


Display with metric or nautical units.
time (UTC)temp
F
wind
direction
speed
MPH
gust
MPH
rain 1hr
in
rain 24hr
in
rain mn
in
humidity
%
barometer
mb
20200401093227 37 228 2.0 5.0 0.00 0.39 0.01 90 1011.2
20200401091549 37 255 2.0 6.0 0.00 0.39 0.01 92 1011.0
20200401090127 37 243 4.0 9.0 0.00 0.39 0.01 92 1011.0
20200401084553 37 285 5.0 12.0 0.00 0.39 0.01 91 1010.8
20200401083103 38 262 5.0 8.0 0.00 0.39 0.01 93 1010.6
20200401081617 38 91 0.0 0.0 0.00 0.39 0.01 94 1010.4
20200401080102 38 91 0.0 3.0 0.00 0.39 0.01 94 1010.4
20200401074606 39 91 0.0 0.0 0.00 0.39 0.01 94 1010.3
20200401073107 39 91 0.0 3.0 0.00 0.39 0.01 94 1010.0
20200401071642 38 91 1.0 2.0 0.00 0.39 0.01 93 1010.1
20200401070105 38 55 0.0 4.0 0.00 0.39 0.01 93 1010.0
20200401064554 38 29 0.0 5.0 0.00 0.39 0.01 91 1010.0
20200401063042 39 94 1.0 4.0 0.00 0.39 0.01 92 1010.1
20200401061608 38 74 1.0 8.0 0.00 0.39 0.01 89 1010.3
20200401060044 39 141 1.0 8.0 0.01 0.39 0.01 88 1010.4
20200401054536 39 231 3.0 6.0 0.01 0.39 0.01 89 1010.4
20200401053021 39 71 3.0 7.0 0.01 0.39 0.01 92 1010.5
20200401051618 39 68 0.0 4.0 0.01 0.39 0.01 93 1010.5
20200401050039 39 67 2.0 7.0 0.00 0.38 0.00 90 1010.3
20200401044511 40 70 3.0 8.0 0.00 0.38 0.00 93 1010.3
20200401043008 40 122 2.0 5.0 0.00 0.38 0.00 92 1010.5
20200401041507 40 115 2.0 6.0 0.00 0.38 0.00 91 1010.4
20200401040007 40 252 2.0 17.0 0.00 0.38 0.00 88 1010.4
20200401034727 40 251 8.0 14.0 0.00 0.38 0.38 88 1010.1
20200401033159 40 304 3.0 10.0 0.00 0.38 0.38 88 1009.9
20200401031644 40 277 5.0 11.0 0.00 0.38 0.38 89 1009.6
20200401030128 41 233 1.0 7.0 0.00 0.38 0.38 90 1009.3
20200401024742 41 257 5.0 9.0 0.00 0.38 0.38 91 1009.4
20200401023148 41 270 7.0 12.0 0.00 0.38 0.38 92 1009.2
20200401021601 42 252 2.0 6.0 0.00 0.38 0.38 90 1009.0
20200401020054 43 119 0.0 5.0 0.00 0.38 0.38 91 1008.6
20200401014600 43 214 1.0 6.0 0.00 0.38 0.38 92 1008.6
20200401013122 43 228 0.0 3.0 0.00 0.38 0.38 93 1008.2
20200401011632 43 335 0.0 2.0 0.00 0.38 0.38 92 1008.2
20200401010125 43 336 2.0 6.0 0.00 0.38 0.38 91 1008.1
20200401004641 43 319 0.0 6.0 0.01 0.38 0.38 91 1008.0
20200401003050 43 301 4.0 6.0 0.01 0.38 0.38 93 1007.8
20200401001603 43 334 0.0 0.0 0.02 0.38 0.38 92 1007.4
20200401000104 43 334 0.0 5.0 0.02 0.38 0.38 91 1007.0
20200331234554 43 319 8.0 13.0 0.03 0.37 0.37 92 1006.8
20200331233044 44 331 2.0 10.0 0.03 0.37 0.37 92 1006.6
20200331231607 45 339 4.0 12.0 0.02 0.36 0.36 93 1006.3
20200331230132 46 106 0.0 4.0 0.03 0.36 0.36 93 1006.1
20200331224604 46 106 2.0 6.0 0.01 0.34 0.34 92 1005.8
20200331223033 47 345 0.0 3.0 0.01 0.34 0.34 92 1005.7
20200331221552 47 300 0.0 0.0 0.01 0.34 0.34 93 1005.6
20200331220120 47 300 0.0 0.0 0.00 0.33 0.33 93 1005.7
20200331214532 46 300 0.0 4.0 0.00 0.33 0.33 90 1005.5
20200331213056 47 306 3.0 7.0 0.00 0.33 0.33 86 1005.5
20200331211555 49 306 4.0 9.0 0.00 0.33 0.33 84 1005.0
20200331210043 50 328 1.0 7.0 0.00 0.33 0.33 76 1004.5
20200331204537 51 205 0.0 0.0 0.00 0.33 0.33 73 1004.1
20200331203035 52 205 0.0 3.0 0.00 0.33 0.33 74 1004.0
20200331201531 53 225 2.0 5.0 0.00 0.33 0.33 76 1004.2
20200331200028 54 115 3.0 9.0 0.00 0.33 0.33 79 1004.3
20200331194526 51 174 0.0 3.0 0.00 0.33 0.33 87 1004.4
20200331193115 49 178 0.0 4.0 0.00 0.33 0.33 86 1005.2
20200331191635 49 179 0.0 4.0 0.00 0.33 0.33 84 1005.6
20200331184531 49 153 1.0 8.0 0.00 0.33 0.33 87 1005.8
20200331183018 49 87 0.0 4.0 0.00 0.33 0.33 89 1006.2
20200331181557 49 100 0.0 4.0 0.00 0.33 0.33 89 1006.7
20200331180023 49 65 0.0 6.0 0.01 0.33 0.33 92 1007.3
20200331174512 49 58 2.0 9.0 0.02 0.33 0.33 94 1007.2
20200331173011 48 86 1.0 4.0 0.05 0.33 0.33 97 1007.9
20200331171512 48 87 0.0 6.0 0.09 0.33 0.33 97 1008.3
20200331170006 45 199 0.0 3.0 0.11 0.32 0.32 96 1010.2
20200331164513 44 244 0.0 4.0 0.13 0.31 0.31 93 1010.5
20200331163204 44 275 0.0 7.0 0.15 0.28 0.28 93 1010.5
20200331161621 45 217 2.0 4.0 0.13 0.24 0.24 93 1009.0
20200331160128 44 217 0.0 0.0 0.13 0.21 0.21 92 1008.8
20200331154634 45 217 0.0 4.0 0.14 0.18 0.18 90 1009.4
20200331153124 45 217 3.0 5.0 0.11 0.13 0.13 92 1009.8
20200331151624 46 217 0.0 4.0 0.09 0.11 0.11 90 1009.4
20200331150205 46 216 0.0 6.0 0.05 0.07 0.07 89 1009.7
20200331144654 47 216 0.0 0.0 0.03 0.04 0.04 90 1009.6
20200331143142 47 216 0.0 2.0 0.01 0.02 0.02 90 1009.7
20200331141742 47 215 0.0 4.0 0.01 0.02 0.02 90 1009.4
20200331140132 46 252 1.0 4.0 0.01 0.02 0.02 86 1010.0
20200331134614 47 251 0.0 0.0 0.00 0.01 0.01 86 1010.4
20200331133048 47 251 0.0 0.0 0.00 0.01 0.01 80 1011.1
20200331131606 46 251 0.0 3.0 0.00 0.01 0.01 75 1011.5
20200331130043 46 251 3.0 5.0 0.01 0.01 0.01 84 1012.0
20200331124546 47 250 0.0 1.0 0.01 0.01 0.01 83 1012.3
20200331123104 47 250 0.0 3.0 0.01 0.01 0.01 83 1012.7
20200331121545 47 250 0.0 0.0 0.01 0.01 0.01 80 1013.1
20200331120021 48 259 0.0 3.0 0.00 0.00 0.00 68 1013.2
20200331114520 48 259 2.0 3.0 0.00 0.00 0.00 70 1013.2
20200331113024 48 259 0.0 0.0 0.00 0.00 0.00 69 1013.0
20200331111548 48 259 0.0 0.0 0.00 0.00 0.00 68 1013.2
20200331110022 48 259 0.0 4.0 0.00 0.00 0.00 69 1013.6
20200331104526 48 259 0.0 2.0 0.00 0.00 0.00 67 1013.4
20200331103012 48 259 0.0 0.0 0.00 0.00 0.00 69 1014.1
20200331101509 48 259 0.0 1.0 0.00 0.00 0.00 71 1014.1
20200331100004 49 259 0.0 2.0 0.00 0.00 0.00 70 1014.7
20200331094503 50 259 0.0 0.0 0.00 0.00 0.00 68 1014.7